sensor_id;sensor_type;location;lat;lon;timestamp;pressure;altitude;pressure_sealevel;temperature;humidity
61384;BME280;63511;49.346;8.798;2022-11-15T00:00:53;99989.63;;;9.73;80.91
61384;BME280;63511;49.346;8.798;2022-11-15T00:03:21;99997.97;;;9.72;81.73
61384;BME280;63511;49.346;8.798;2022-11-15T00:05:52;99997.88;;;9.84;81.30
61384;BME280;63511;49.346;8.798;2022-11-15T00:08:17;99992.84;;;9.84;81.25
61384;BME280;63511;49.346;8.798;2022-11-15T00:10:54;99990.09;;;9.80;81.67
61384;BME280;63511;49.346;8.798;2022-11-15T00:13:21;99994.47;;;9.83;82.60
61384;BME280;63511;49.346;8.798;2022-11-15T00:15:49;100000.00;;;9.91;82.64
61384;BME280;63511;49.346;8.798;2022-11-15T00:18:17;99999.03;;;10.02;81.73
61384;BME280;63511;49.346;8.798;2022-11-15T00:20:45;99985.09;;;9.94;81.05
61384;BME280;63511;49.346;8.798;2022-11-15T00:23:11;99985.97;;;9.94;80.98
61384;BME280;63511;49.346;8.798;2022-11-15T00:25:36;99986.72;;;9.93;81.25
61384;BME280;63511;49.346;8.798;2022-11-15T00:28:02;99982.38;;;10.04;80.84
61384;BME280;63511;49.346;8.798;2022-11-15T00:30:29;99976.25;;;10.13;80.25
61384;BME280;63511;49.346;8.798;2022-11-15T00:32:55;99986.34;;;10.13;80.40
61384;BME280;63511;49.346;8.798;2022-11-15T00:35:21;99975.47;;;9.88;80.76
61384;BME280;63511;49.346;8.798;2022-11-15T00:37:47;99979.56;;;9.99;80.70
61384;BME280;63511;49.346;8.798;2022-11-15T00:40:13;99988.38;;;10.06;80.63
61384;BME280;63511;49.346;8.798;2022-11-15T00:42:39;99987.91;;;9.98;80.73
61384;BME280;63511;49.346;8.798;2022-11-15T00:45:05;99973.72;;;10.00;80.39
61384;BME280;63511;49.346;8.798;2022-11-15T00:47:30;99982.75;;;10.10;80.98
61384;BME280;63511;49.346;8.798;2022-11-15T00:49:58;99979.81;;;9.91;82.44
61384;BME280;63511;49.346;8.798;2022-11-15T00:52:23;99981.66;;;10.06;82.26
61384;BME280;63511;49.346;8.798;2022-11-15T00:54:49;99969.34;;;10.11;81.81
61384;BME280;63511;49.346;8.798;2022-11-15T00:57:14;99967.53;;;10.21;81.26
61384;BME280;63511;49.346;8.798;2022-11-15T00:59:39;99965.22;;;10.25;80.50
61384;BME280;63511;49.346;8.798;2022-11-15T01:02:07;99964.13;;;10.21;80.58
61384;BME280;63511;49.346;8.798;2022-11-15T01:04:32;99961.69;;;10.09;81.04
61384;BME280;63511;49.346;8.798;2022-11-15T01:06:57;99962.06;;;10.02;81.25
61384;BME280;63511;49.346;8.798;2022-11-15T01:09:23;99945.31;;;10.03;80.79
61384;BME280;63511;49.346;8.798;2022-11-15T01:11:48;99952.69;;;10.00;80.23
61384;BME280;63511;49.346;8.798;2022-11-15T01:14:13;99953.53;;;10.00;79.92
61384;BME280;63511;49.346;8.798;2022-11-15T01:16:41;99946.75;;;9.86;80.60
61384;BME280;63511;49.346;8.798;2022-11-15T01:19:11;99950.25;;;9.88;80.45
61384;BME280;63511;49.346;8.798;2022-11-15T01:21:41;99948.22;;;9.82;80.02
61384;BME280;63511;49.346;8.798;2022-11-15T01:24:07;99949.94;;;9.70;80.80
61384;BME280;63511;49.346;8.798;2022-11-15T01:26:33;99946.75;;;9.73;80.54
61384;BME280;63511;49.346;8.798;2022-11-15T01:28:58;99937.56;;;9.73;81.21
61384;BME280;63511;49.346;8.798;2022-11-15T01:31:23;99941.13;;;9.77;81.38
61384;BME280;63511;49.346;8.798;2022-11-15T01:33:49;99937.06;;;9.79;81.63
61384;BME280;63511;49.346;8.798;2022-11-15T01:36:19;99939.59;;;9.79;81.30
61384;BME280;63511;49.346;8.798;2022-11-15T01:38:47;99937.34;;;9.97;80.67
61384;BME280;63511;49.346;8.798;2022-11-15T01:41:17;99934.22;;;10.01;81.39
61384;BME280;63511;49.346;8.798;2022-11-15T01:43:43;99927.75;;;10.04;81.12
61384;BME280;63511;49.346;8.798;2022-11-15T01:48:42;99924.34;;;10.30;80.13
61384;BME280;63511;49.346;8.798;2022-11-15T01:51:11;99912.97;;;10.10;80.70
61384;BME280;63511;49.346;8.798;2022-11-15T01:53:40;99916.38;;;10.24;81.14
61384;BME280;63511;49.346;8.798;2022-11-15T01:56:09;99918.41;;;10.30;80.08
61384;BME280;63511;49.346;8.798;2022-11-15T01:58:38;99913.84;;;10.11;80.28
61384;BME280;63511;49.346;8.798;2022-11-15T02:01:04;99910.16;;;10.06;80.37
61384;BME280;63511;49.346;8.798;2022-11-15T02:03:53;99906.75;;;10.05;80.81
61384;BME280;63511;49.346;8.798;2022-11-15T02:06:22;99904.75;;;10.00;80.92
61384;BME280;63511;49.346;8.798;2022-11-15T02:08:51;99903.28;;;10.03;80.53
61384;BME280;63511;49.346;8.798;2022-11-15T02:11:16;99904.38;;;9.80;80.90
61384;BME280;63511;49.346;8.798;2022-11-15T02:13:42;99900.19;;;9.94;80.00
61384;BME280;63511;49.346;8.798;2022-11-15T02:18:52;99892.94;;;9.46;81.21
61384;BME280;63511;49.346;8.798;2022-11-15T02:21:44;99884.09;;;9.66;80.33
61384;BME280;63511;49.346;8.798;2022-11-15T02:32:44;99881.41;;;9.63;80.66
61384;BME280;63511;49.346;8.798;2022-11-15T02:35:35;99882.38;;;9.52;81.27
61384;BME280;63511;49.346;8.798;2022-11-15T02:40:41;99874.78;;;9.65;81.20
61384;BME280;63511;49.346;8.798;2022-11-15T02:43:12;99865.13;;;9.58;80.00
61384;BME280;63511;49.346;8.798;2022-11-15T02:46:09;99867.81;;;9.61;79.89
61384;BME280;63511;49.346;8.798;2022-11-15T02:48:40;99860.63;;;9.54;80.94
61384;BME280;63511;49.346;8.798;2022-11-15T02:51:07;99854.91;;;9.43;79.60
61384;BME280;63511;49.346;8.798;2022-11-15T02:53:33;99846.13;;;9.36;79.85
61384;BME280;63511;49.346;8.798;2022-11-15T02:55:58;99851.63;;;9.44;79.72
61384;BME280;63511;49.346;8.798;2022-11-15T03:04:07;99846.84;;;9.09;80.55
61384;BME280;63511;49.346;8.798;2022-11-15T03:12:27;99852.47;;;9.18;81.30
61384;BME280;63511;49.346;8.798;2022-11-15T03:15:03;99852.59;;;9.20;81.51
61384;BME280;63511;49.346;8.798;2022-11-15T03:17:34;99849.28;;;9.34;81.06
61384;BME280;63511;49.346;8.798;2022-11-15T03:20:03;99842.59;;;9.34;81.01
61384;BME280;63511;49.346;8.798;2022-11-15T03:22:33;99842.13;;;9.27;80.25
61384;BME280;63511;49.346;8.798;2022-11-15T03:25:01;99836.03;;;9.36;81.13
61384;BME280;63511;49.346;8.798;2022-11-15T03:27:34;99833.59;;;9.38;81.58
61384;BME280;63511;49.346;8.798;2022-11-15T03:30:04;99835.34;;;9.39;80.88
61384;BME280;63511;49.346;8.798;2022-11-15T03:32:36;99834.09;;;9.32;81.68
61384;BME280;63511;49.346;8.798;2022-11-15T03:35:24;99834.66;;;9.55;81.59
61384;BME280;63511;49.346;8.798;2022-11-15T03:43:10;99839.78;;;9.69;81.27
61384;BME280;63511;49.346;8.798;2022-11-15T03:45:44;99840.44;;;9.80;81.13
61384;BME280;63511;49.346;8.798;2022-11-15T03:48:16;99841.88;;;9.90;81.20
61384;BME280;63511;49.346;8.798;2022-11-15T03:50:43;99835.41;;;9.93;80.83
61384;BME280;63511;49.346;8.798;2022-11-15T03:53:10;99834.69;;;9.96;80.60
61384;BME280;63511;49.346;8.798;2022-11-15T03:55:38;99825.09;;;10.03;80.78
61384;BME280;63511;49.346;8.798;2022-11-15T03:58:04;99836.28;;;9.94;81.42
61384;BME280;63511;49.346;8.798;2022-11-15T04:00:30;99828.31;;;9.88;81.59
61384;BME280;63511;49.346;8.798;2022-11-15T04:02:55;99831.94;;;10.06;80.61
61384;BME280;63511;49.346;8.798;2022-11-15T04:05:20;99827.50;;;10.15;80.79
61384;BME280;63511;49.346;8.798;2022-11-15T04:07:46;99828.56;;;10.18;80.21
61384;BME280;63511;49.346;8.798;2022-11-15T04:10:14;99827.88;;;10.21;80.57
61384;BME280;63511;49.346;8.798;2022-11-15T04:12:43;99827.78;;;10.19;80.56
61384;BME280;63511;49.346;8.798;2022-11-15T04:15:10;99833.13;;;10.24;81.37
61384;BME280;63511;49.346;8.798;2022-11-15T04:22:56;99831.34;;;10.36;80.96
61384;BME280;63511;49.346;8.798;2022-11-15T04:25:41;99819.31;;;10.47;81.19
61384;BME280;63511;49.346;8.798;2022-11-15T04:28:07;99811.06;;;10.49;80.54
61384;BME280;63511;49.346;8.798;2022-11-15T04:30:33;99806.94;;;10.37;80.36
61384;BME280;63511;49.346;8.798;2022-11-15T04:32:58;99819.38;;;10.34;80.91
61384;BME280;63511;49.346;8.798;2022-11-15T04:35:24;99816.00;;;9.92;83.79
61384;BME280;63511;49.346;8.798;2022-11-15T04:37:50;99813.59;;;10.21;82.50
61384;BME280;63511;49.346;8.798;2022-11-15T04:40:15;99812.16;;;10.25;82.53
61384;BME280;63511;49.346;8.798;2022-11-15T04:42:41;99803.41;;;10.48;81.08
61384;BME280;63511;49.346;8.798;2022-11-15T04:45:08;99801.34;;;10.55;81.79
61384;BME280;63511;49.346;8.798;2022-11-15T04:47:34;99801.97;;;10.66;80.55
61384;BME280;63511;49.346;8.798;2022-11-15T04:50:02;99803.09;;;10.71;81.10
61384;BME280;63511;49.346;8.798;2022-11-15T04:52:27;99802.66;;;10.78;81.23
61384;BME280;63511;49.346;8.798;2022-11-15T04:54:52;99801.44;;;10.72;80.98
61384;BME280;63511;49.346;8.798;2022-11-15T04:57:20;99792.47;;;10.62;81.27
61384;BME280;63511;49.346;8.798;2022-11-15T04:59:48;99787.22;;;10.74;81.40
61384;BME280;63511;49.346;8.798;2022-11-15T05:02:16;99787.59;;;10.80;80.56
61384;BME280;63511;49.346;8.798;2022-11-15T05:04:41;99783.94;;;10.75;80.85
61384;BME280;63511;49.346;8.798;2022-11-15T05:07:08;99773.16;;;10.77;81.65
61384;BME280;63511;49.346;8.798;2022-11-15T05:09:36;99766.59;;;10.81;81.54
61384;BME280;63511;49.346;8.798;2022-11-15T05:12:01;99771.28;;;10.89;80.21
61384;BME280;63511;49.346;8.798;2022-11-15T05:14:27;99763.31;;;10.82;81.20
61384;BME280;63511;49.346;8.798;2022-11-15T05:16:52;99766.09;;;10.72;81.47
61384;BME280;63511;49.346;8.798;2022-11-15T05:19:17;99776.19;;;10.86;80.86
61384;BME280;63511;49.346;8.798;2022-11-15T05:21:42;99773.81;;;10.89;81.75
61384;BME280;63511;49.346;8.798;2022-11-15T05:24:10;99771.56;;;10.94;80.97
61384;BME280;63511;49.346;8.798;2022-11-15T05:26:36;99773.03;;;10.90;80.64
61384;BME280;63511;49.346;8.798;2022-11-15T05:29:03;99773.19;;;10.93;81.21
61384;BME280;63511;49.346;8.798;2022-11-15T05:31:30;99771.03;;;10.85;80.98
61384;BME280;63511;49.346;8.798;2022-11-15T05:33:56;99770.94;;;10.83;81.39
61384;BME280;63511;49.346;8.798;2022-11-15T05:36:34;99773.66;;;10.86;80.76
61384;BME280;63511;49.346;8.798;2022-11-15T05:39:01;99771.66;;;10.81;81.24
61384;BME280;63511;49.346;8.798;2022-11-15T05:41:32;99762.31;;;10.94;81.15
61384;BME280;63511;49.346;8.798;2022-11-15T05:44:01;99755.28;;;10.74;81.88
61384;BME280;63511;49.346;8.798;2022-11-15T05:46:28;99761.13;;;10.88;81.10
61384;BME280;63511;49.346;8.798;2022-11-15T05:48:54;99759.44;;;10.88;80.89
61384;BME280;63511;49.346;8.798;2022-11-15T05:51:22;99751.97;;;10.90;80.69
61384;BME280;63511;49.346;8.798;2022-11-15T05:53:48;99752.41;;;10.68;81.55
61384;BME280;63511;49.346;8.798;2022-11-15T05:56:14;99779.13;;;10.79;81.38
61384;BME280;63511;49.346;8.798;2022-11-15T05:58:39;99769.91;;;10.80;81.02
61384;BME280;63511;49.346;8.798;2022-11-15T06:01:05;99770.28;;;10.71;82.39
61384;BME280;63511;49.346;8.798;2022-11-15T06:03:30;99773.16;;;10.77;81.85
61384;BME280;63511;49.346;8.798;2022-11-15T06:05:56;99775.22;;;10.84;81.53
61384;BME280;63511;49.346;8.798;2022-11-15T06:08:24;99764.84;;;10.94;81.31
61384;BME280;63511;49.346;8.798;2022-11-15T06:10:51;99768.88;;;10.91;81.27
61384;BME280;63511;49.346;8.798;2022-11-15T06:13:17;99762.75;;;11.02;81.45
61384;BME280;63511;49.346;8.798;2022-11-15T06:15:42;99761.88;;;11.01;80.81
61384;BME280;63511;49.346;8.798;2022-11-15T06:18:07;99767.03;;;10.88;81.21
61384;BME280;63511;49.346;8.798;2022-11-15T06:20:33;99760.00;;;10.83;82.20
61384;BME280;63511;49.346;8.798;2022-11-15T06:23:03;99767.72;;;11.00;81.39
61384;BME280;63511;49.346;8.798;2022-11-15T06:25:29;99765.38;;;11.03;81.32
61384;BME280;63511;49.346;8.798;2022-11-15T06:27:57;99762.75;;;11.02;80.89
61384;BME280;63511;49.346;8.798;2022-11-15T06:30:26;99754.41;;;10.88;81.63
61384;BME280;63511;49.346;8.798;2022-11-15T06:33:00;99748.13;;;10.96;80.68
61384;BME280;63511;49.346;8.798;2022-11-15T06:35:26;99756.25;;;10.76;80.96
61384;BME280;63511;49.346;8.798;2022-11-15T06:37:51;99766.25;;;10.89;81.26
61384;BME280;63511;49.346;8.798;2022-11-15T06:40:17;99774.09;;;10.64;82.11
61384;BME280;63511;49.346;8.798;2022-11-15T06:42:45;99770.88;;;10.67;82.07
61384;BME280;63511;49.346;8.798;2022-11-15T06:45:10;99780.63;;;10.76;81.86
61384;BME280;63511;49.346;8.798;2022-11-15T06:47:35;99772.69;;;10.70;81.32
61384;BME280;63511;49.346;8.798;2022-11-15T06:50:00;99770.31;;;10.43;81.45
61384;BME280;63511;49.346;8.798;2022-11-15T06:52:26;99761.81;;;10.56;81.99
61384;BME280;63511;49.346;8.798;2022-11-15T06:54:51;99765.47;;;10.61;82.04
61384;BME280;63511;49.346;8.798;2022-11-15T06:57:17;99776.09;;;10.70;81.10
61384;BME280;63511;49.346;8.798;2022-11-15T06:59:42;99759.97;;;10.68;81.29
61384;BME280;63511;49.346;8.798;2022-11-15T07:02:16;99759.19;;;10.69;81.60
61384;BME280;63511;49.346;8.798;2022-11-15T07:04:41;99761.19;;;10.75;82.51
61384;BME280;63511;49.346;8.798;2022-11-15T07:07:07;99755.63;;;10.80;82.09
61384;BME280;63511;49.346;8.798;2022-11-15T07:09:32;99757.91;;;10.61;81.86
61384;BME280;63511;49.346;8.798;2022-11-15T07:11:57;99775.91;;;10.52;83.50
61384;BME280;63511;49.346;8.798;2022-11-15T07:14:23;99777.59;;;10.81;82.62
61384;BME280;63511;49.346;8.798;2022-11-15T07:16:48;99769.22;;;10.97;81.51
61384;BME280;63511;49.346;8.798;2022-11-15T07:19:15;99791.59;;;11.05;81.58
61384;BME280;63511;49.346;8.798;2022-11-15T07:21:41;99786.72;;;11.08;81.89
61384;BME280;63511;49.346;8.798;2022-11-15T07:24:08;99782.81;;;11.14;81.90
61384;BME280;63511;49.346;8.798;2022-11-15T07:26:36;99781.91;;;11.28;81.59
61384;BME280;63511;49.346;8.798;2022-11-15T07:29:01;99795.47;;;11.44;81.96
61384;BME280;63511;49.346;8.798;2022-11-15T07:31:29;99790.63;;;11.64;81.28
61384;BME280;63511;49.346;8.798;2022-11-15T07:33:54;99784.41;;;11.73;82.77
61384;BME280;63511;49.346;8.798;2022-11-15T07:36:22;99780.22;;;11.74;81.88
61384;BME280;63511;49.346;8.798;2022-11-15T07:38:47;99784.06;;;11.67;81.86
61384;BME280;63511;49.346;8.798;2022-11-15T07:41:12;99778.19;;;11.83;82.12
61384;BME280;63511;49.346;8.798;2022-11-15T07:43:38;99781.75;;;11.86;81.80
61384;BME280;63511;49.346;8.798;2022-11-15T07:46:07;99773.16;;;11.99;81.28
61384;BME280;63511;49.346;8.798;2022-11-15T07:48:34;99782.13;;;11.78;81.65
61384;BME280;63511;49.346;8.798;2022-11-15T07:50:59;99784.91;;;11.82;82.37
61384;BME280;63511;49.346;8.798;2022-11-15T07:53:24;99781.94;;;12.06;81.63
61384;BME280;63511;49.346;8.798;2022-11-15T07:55:52;99785.56;;;12.11;82.29
61384;BME280;63511;49.346;8.798;2022-11-15T07:58:19;99779.41;;;12.22;82.25
61384;BME280;63511;49.346;8.798;2022-11-15T08:00:47;99784.63;;;12.41;81.97
61384;BME280;63511;49.346;8.798;2022-11-15T08:03:17;99780.25;;;12.39;81.52
61384;BME280;63511;49.346;8.798;2022-11-15T08:05:43;99786.19;;;12.23;81.57
61384;BME280;63511;49.346;8.798;2022-11-15T08:08:14;99776.94;;;12.40;82.65
61384;BME280;63511;49.346;8.798;2022-11-15T08:10:40;99770.50;;;12.62;81.98
61384;BME280;63511;49.346;8.798;2022-11-15T08:13:07;99767.28;;;12.83;81.15
61384;BME280;63511;49.346;8.798;2022-11-15T08:15:36;99770.28;;;12.75;81.16
61384;BME280;63511;49.346;8.798;2022-11-15T08:18:14;99766.06;;;12.92;80.74
61384;BME280;63511;49.346;8.798;2022-11-15T08:20:41;99760.75;;;12.88;79.80
61384;BME280;63511;49.346;8.798;2022-11-15T08:23:07;99770.03;;;12.87;80.24
61384;BME280;63511;49.346;8.798;2022-11-15T08:25:33;99763.66;;;12.77;81.41
61384;BME280;63511;49.346;8.798;2022-11-15T08:28:04;99759.94;;;13.05;79.93
61384;BME280;63511;49.346;8.798;2022-11-15T08:30:30;99759.25;;;13.09;79.88
61384;BME280;63511;49.346;8.798;2022-11-15T08:32:58;99750.16;;;12.61;80.96
61384;BME280;63511;49.346;8.798;2022-11-15T08:35:26;99750.41;;;13.01;80.61
61384;BME280;63511;49.346;8.798;2022-11-15T08:37:54;99745.72;;;13.08;80.84
61384;BME280;63511;49.346;8.798;2022-11-15T08:40:23;99743.06;;;13.23;80.75
61384;BME280;63511;49.346;8.798;2022-11-15T08:42:48;99737.78;;;13.36;80.51
61384;BME280;63511;49.346;8.798;2022-11-15T08:45:14;99744.72;;;13.23;80.55
61384;BME280;63511;49.346;8.798;2022-11-15T08:47:42;99745.81;;;13.45;79.88
61384;BME280;63511;49.346;8.798;2022-11-15T08:50:09;99744.94;;;13.27;80.03
61384;BME280;63511;49.346;8.798;2022-11-15T08:52:35;99734.78;;;13.63;80.32
61384;BME280;63511;49.346;8.798;2022-11-15T08:55:00;99730.91;;;13.53;80.48
61384;BME280;63511;49.346;8.798;2022-11-15T08:57:28;99733.25;;;13.85;80.07
61384;BME280;63511;49.346;8.798;2022-11-15T08:59:55;99735.09;;;13.33;80.26
61384;BME280;63511;49.346;8.798;2022-11-15T09:02:20;99730.19;;;13.36;81.09
61384;BME280;63511;49.346;8.798;2022-11-15T09:04:46;99727.91;;;13.42;81.03
61384;BME280;63511;49.346;8.798;2022-11-15T09:07:11;99726.59;;;13.33;80.58
61384;BME280;63511;49.346;8.798;2022-11-15T09:09:38;99722.34;;;13.14;81.90
61384;BME280;63511;49.346;8.798;2022-11-15T09:12:04;99727.34;;;12.95;82.29
61384;BME280;63511;49.346;8.798;2022-11-15T09:14:30;99722.03;;;13.08;82.49
61384;BME280;63511;49.346;8.798;2022-11-15T09:16:56;99727.63;;;13.18;82.04
61384;BME280;63511;49.346;8.798;2022-11-15T09:19:21;99727.59;;;13.54;81.22
61384;BME280;63511;49.346;8.798;2022-11-15T09:21:47;99732.06;;;13.59;81.18
61384;BME280;63511;49.346;8.798;2022-11-15T09:24:12;99727.31;;;14.04;80.10
61384;BME280;63511;49.346;8.798;2022-11-15T09:26:38;99720.53;;;14.04;80.24
61384;BME280;63511;49.346;8.798;2022-11-15T09:29:03;99726.09;;;13.96;79.94
61384;BME280;63511;49.346;8.798;2022-11-15T09:31:31;99734.22;;;13.70;80.71
61384;BME280;63511;49.346;8.798;2022-11-15T09:33:57;99731.66;;;13.50;81.48
61384;BME280;63511;49.346;8.798;2022-11-15T09:36:22;99724.94;;;13.89;81.02
61384;BME280;63511;49.346;8.798;2022-11-15T09:38:50;99731.13;;;14.14;80.12
61384;BME280;63511;49.346;8.798;2022-11-15T09:41:34;99718.13;;;13.32;82.25
61384;BME280;63511;49.346;8.798;2022-11-15T09:49:31;99703.31;;;14.57;79.47
61384;BME280;63511;49.346;8.798;2022-11-15T09:51:57;99702.50;;;14.58;79.35
61384;BME280;63511;49.346;8.798;2022-11-15T09:57:11;99698.00;;;14.92;78.79
61384;BME280;63511;49.346;8.798;2022-11-15T10:05:22;99684.50;;;15.15;76.67
61384;BME280;63511;49.346;8.798;2022-11-15T10:08:47;99693.66;;;14.69;78.06
61384;BME280;63511;49.346;8.798;2022-11-15T10:11:03;99677.72;;;15.16;77.57
61384;BME280;63511;49.346;8.798;2022-11-15T10:13:32;99677.56;;;15.11;77.28
61384;BME280;63511;49.346;8.798;2022-11-15T10:19:12;99672.00;;;15.21;76.59
61384;BME280;63511;49.346;8.798;2022-11-15T10:21:55;99673.19;;;14.86;74.61
61384;BME280;63511;49.346;8.798;2022-11-15T10:24:27;99669.09;;;15.35;73.68
61384;BME280;63511;49.346;8.798;2022-11-15T10:26:54;99666.06;;;15.21;74.84
61384;BME280;63511;49.346;8.798;2022-11-15T10:29:21;99664.53;;;15.04;74.68
61384;BME280;63511;49.346;8.798;2022-11-15T10:31:47;99659.59;;;15.07;74.29
61384;BME280;63511;49.346;8.798;2022-11-15T10:34:15;99659.50;;;15.05;73.79
61384;BME280;63511;49.346;8.798;2022-11-15T10:36:56;99649.22;;;15.24;74.27
61384;BME280;63511;49.346;8.798;2022-11-15T10:39:24;99649.75;;;15.16;74.46
61384;BME280;63511;49.346;8.798;2022-11-15T10:41:52;99639.50;;;15.59;74.05
61384;BME280;63511;49.346;8.798;2022-11-15T10:44:26;99637.09;;;15.87;74.21
61384;BME280;63511;49.346;8.798;2022-11-15T10:49:29;99632.44;;;15.99;73.59
61384;BME280;63511;49.346;8.798;2022-11-15T10:54:33;99623.53;;;16.12;73.88
61384;BME280;63511;49.346;8.798;2022-11-15T10:57:26;99629.28;;;16.06;74.50
61384;BME280;63511;49.346;8.798;2022-11-15T10:59:56;99622.97;;;16.21;73.69
61384;BME280;63511;49.346;8.798;2022-11-15T11:02:29;99622.41;;;16.04;73.79
61384;BME280;63511;49.346;8.798;2022-11-15T11:04:58;99616.16;;;15.94;71.65
61384;BME280;63511;49.346;8.798;2022-11-15T11:07:27;99616.09;;;16.18;72.90
61384;BME280;63511;49.346;8.798;2022-11-15T11:12:33;99610.78;;;16.63;71.96
61384;BME280;63511;49.346;8.798;2022-11-15T11:15:10;99610.59;;;16.58;71.74
61384;BME280;63511;49.346;8.798;2022-11-15T11:17:51;99598.31;;;16.72;71.54
61384;BME280;63511;49.346;8.798;2022-11-15T11:39:37;99572.03;;;17.03;68.23
61384;BME280;63511;49.346;8.798;2022-11-15T11:42:37;99570.03;;;16.64;68.59
61384;BME280;63511;49.346;8.798;2022-11-15T11:47:57;99548.34;;;17.07;68.38
61384;BME280;63511;49.346;8.798;2022-11-15T11:50:27;99536.72;;;17.16;67.98
61384;BME280;63511;49.346;8.798;2022-11-15T11:55:49;99528.56;;;16.99;68.49
61384;BME280;63511;49.346;8.798;2022-11-15T11:58:28;99531.22;;;16.73;69.43
61384;BME280;63511;49.346;8.798;2022-11-15T12:03:45;99505.34;;;16.89;70.21
61384;BME280;63511;49.346;8.798;2022-11-15T12:09:06;99509.81;;;16.97;68.05
61384;BME280;63511;49.346;8.798;2022-11-15T12:11:58;99520.28;;;17.07;68.21
61384;BME280;63511;49.346;8.798;2022-11-15T12:16:59;99505.91;;;17.09;68.54
61384;BME280;63511;49.346;8.798;2022-11-15T12:19:28;99501.69;;;17.11;68.46
61384;BME280;63511;49.346;8.798;2022-11-15T12:25:03;99506.28;;;16.63;70.33
61384;BME280;63511;49.346;8.798;2022-11-15T12:27:38;99505.13;;;16.26;71.44
61384;BME280;63511;49.346;8.798;2022-11-15T12:30:12;99499.03;;;16.23;72.57
61384;BME280;63511;49.346;8.798;2022-11-15T12:32:39;99496.00;;;16.34;71.51
61384;BME280;63511;49.346;8.798;2022-11-15T12:35:21;99488.81;;;16.76;70.24
61384;BME280;63511;49.346;8.798;2022-11-15T12:37:55;99479.28;;;16.99;70.45
61384;BME280;63511;49.346;8.798;2022-11-15T12:45:42;99478.78;;;16.54;71.70
61384;BME280;63511;49.346;8.798;2022-11-15T12:58:57;99453.47;;;16.88;68.92
61384;BME280;63511;49.346;8.798;2022-11-15T13:06:49;99446.00;;;17.27;67.24
61384;BME280;63511;49.346;8.798;2022-11-15T13:12:11;99435.53;;;17.50;67.85
61384;BME280;63511;49.346;8.798;2022-11-15T13:14:58;99436.03;;;17.36;67.12
61384;BME280;63511;49.346;8.798;2022-11-15T13:17:37;99432.31;;;16.92;69.63
61384;BME280;63511;49.346;8.798;2022-11-15T13:30:53;99415.34;;;16.94;68.03
61384;BME280;63511;49.346;8.798;2022-11-15T13:33:32;99415.41;;;16.96;68.20
61384;BME280;63511;49.346;8.798;2022-11-15T13:36:05;99410.75;;;17.13;68.20
61384;BME280;63511;49.346;8.798;2022-11-15T13:38:34;99404.44;;;16.98;68.54
61384;BME280;63511;49.346;8.798;2022-11-15T13:41:20;99392.09;;;17.15;68.63
61384;BME280;63511;49.346;8.798;2022-11-15T13:43:49;99397.19;;;17.15;68.20
61384;BME280;63511;49.346;8.798;2022-11-15T13:46:21;99395.19;;;17.36;68.01
61384;BME280;63511;49.346;8.798;2022-11-15T13:48:53;99385.06;;;17.39;67.93
61384;BME280;63511;49.346;8.798;2022-11-15T13:51:41;99379.47;;;17.20;67.37
61384;BME280;63511;49.346;8.798;2022-11-15T13:54:10;99377.63;;;17.14;68.39
61384;BME280;63511;49.346;8.798;2022-11-15T13:56:44;99376.25;;;17.27;68.17
61384;BME280;63511;49.346;8.798;2022-11-15T13:59:17;99374.38;;;17.20;67.65
61384;BME280;63511;49.346;8.798;2022-11-15T14:01:43;99370.75;;;17.12;68.38
61384;BME280;63511;49.346;8.798;2022-11-15T14:04:11;99367.31;;;17.10;67.56
61384;BME280;63511;49.346;8.798;2022-11-15T14:06:47;99364.00;;;17.14;67.66
61384;BME280;63511;49.346;8.798;2022-11-15T14:09:32;99358.53;;;16.98;67.60
61384;BME280;63511;49.346;8.798;2022-11-15T14:11:59;99351.28;;;17.15;67.47
61384;BME280;63511;49.346;8.798;2022-11-15T14:14:26;99351.91;;;17.07;67.58
61384;BME280;63511;49.346;8.798;2022-11-15T14:17:00;99352.38;;;16.92;67.65
61384;BME280;63511;49.346;8.798;2022-11-15T14:22:20;99351.00;;;17.05;68.88
61384;BME280;63511;49.346;8.798;2022-11-15T14:25:27;99341.16;;;16.84;69.92
61384;BME280;63511;49.346;8.798;2022-11-15T14:30:36;99343.44;;;16.75;70.72
61384;BME280;63511;49.346;8.798;2022-11-15T14:33:01;99339.47;;;16.86;70.76
61384;BME280;63511;49.346;8.798;2022-11-15T14:35:31;99332.06;;;16.62;72.81
61384;BME280;63511;49.346;8.798;2022-11-15T14:37:59;99333.47;;;16.54;72.94
61384;BME280;63511;49.346;8.798;2022-11-15T14:40:24;99327.19;;;16.71;72.07
61384;BME280;63511;49.346;8.798;2022-11-15T14:42:49;99322.75;;;16.64;72.66
61384;BME280;63511;49.346;8.798;2022-11-15T14:45:20;99320.75;;;16.54;73.29
61384;BME280;63511;49.346;8.798;2022-11-15T14:47:45;99315.63;;;16.52;73.76
61384;BME280;63511;49.346;8.798;2022-11-15T14:50:21;99307.16;;;16.24;73.94
61384;BME280;63511;49.346;8.798;2022-11-15T14:52:47;99301.13;;;16.20;73.88
61384;BME280;63511;49.346;8.798;2022-11-15T14:57:51;99304.97;;;16.37;72.13
61384;BME280;63511;49.346;8.798;2022-11-15T15:00:20;99292.06;;;16.30;74.77
61384;BME280;63511;49.346;8.798;2022-11-15T15:02:47;99293.78;;;16.31;75.04
61384;BME280;63511;49.346;8.798;2022-11-15T15:05:18;99295.00;;;16.13;74.79
61384;BME280;63511;49.346;8.798;2022-11-15T15:07:44;99283.19;;;16.15;75.34
61384;BME280;63511;49.346;8.798;2022-11-15T15:10:10;99280.41;;;16.08;75.63
61384;BME280;63511;49.346;8.798;2022-11-15T15:12:36;99279.16;;;15.65;74.24
61384;BME280;63511;49.346;8.798;2022-11-15T15:15:04;99275.13;;;15.72;74.96
61384;BME280;63511;49.346;8.798;2022-11-15T15:17:30;99265.13;;;15.78;74.40
61384;BME280;63511;49.346;8.798;2022-11-15T15:19:55;99261.69;;;16.06;73.76
61384;BME280;63511;49.346;8.798;2022-11-15T15:22:21;99252.47;;;15.81;76.28
61384;BME280;63511;49.346;8.798;2022-11-15T15:24:50;99241.72;;;15.61;76.15
61384;BME280;63511;49.346;8.798;2022-11-15T15:27:16;99229.13;;;15.66;74.23
61384;BME280;63511;49.346;8.798;2022-11-15T15:29:41;99226.28;;;15.85;73.36
61384;BME280;63511;49.346;8.798;2022-11-15T15:32:07;99237.84;;;16.04;73.74
61384;BME280;63511;49.346;8.798;2022-11-15T15:34:33;99240.91;;;15.92;74.56